ドーハ の空港の天気 - METARとTAF

ドーハ国際空港 ( OTBD / DOH ) - カタール ドーハ
飛行場実況気象(Metar)
観測時間01/21 20:00 AST (01/21 17:00 UTC)
風向・風速北西 6m/s
視程9000m
天気現象
なし
気温17℃
湿度55%
気圧1021hPa
METAROTBD 211700Z 31011KT 280V340 9000 NSC 17/08 Q1021 NOSIG
過去の天気等 Google飛行場航空写真 Wunderground天気予報

過去48時間のMETAR

飛行場予報(TAF)
発表時間: 1/21 19:59 AST (1/21 16:59 UTC)
予報対象時間: 21日21時 AST ~ 23日3時 AST
風向・風速北西 6m/s
視程8,000m
なし
TAF COR OTBD 211659Z 2118/2224 31012KT 8000 NSC